x

North Equatorial Two - 890 Nm East Of Martinique (41041) Wave Buoy

9:50pm - Fri 29th May 2015 All times are UTC.

  • Sig Wave height 6.6ft
  • Swell Direction
  • Peak Period 8s
  • Average Period 6s
  • Wind
    18mph, 22mph gusts
  • Sea Temp 78°f
  • Air Temp 77°f
  • Sea Pressure 1014.6mb

More Historic Weather Station data

Upgrade to MSW Pro to gain access to the past 30 days of data for over 8000 Wavebouys and Weather Stations around the globe.

Join Pro

Comparision Forecast

View Surf forecast
   
Fri 05/29 9:50pm 6.5ft 8s 6s 18 22 mph 1014.6mb 78f 77f
8:50pm 6.5ft 7s 6s 20 25 mph 1014.2mb 78f 77f
7:50pm 6.5ft 8s 6s 20 25 mph 1013.9mb 78f 76f
6:50pm 6.5ft 8s 6s 20 25 mph 1013.4mb 78f 75f
5:50pm 6ft 7s 6s 18 20 mph 1014.1mb 78f 76f
4:50pm 6.5ft 8s 6s 20 22 mph 1014.4mb 78f 77f
3:50pm 7ft 7s 6s 20 22 mph 1015.1mb 78f 77f
2:50pm 6ft 8s 6s 22 25 mph 1015.5mb 78f 77f
1:50pm 6.5ft 8s 6s 20 22 mph 1015.8mb 78f 77f
12:50pm 7ft 8s 6s 18 22 mph 1016mb 78f 77f
11:50am 6ft 8s  -  18 22 mph 1015.8mb 78f 77f
10:50am 7ft 8s 6s 22 25 mph 1015.7mb 78f 77f
9:50am 7ft 8s 6s 18 25 mph 1015.5mb 78f 76f
8:50am 7ft 7s 6s 25 29 mph 1015.1mb 78f 76f
7:50am 7ft 8s 6s 22 27 mph 1014.7mb 78f 77f
6:50am 6.5ft 8s 6s 20 25 mph 1014.6mb 78f 77f
5:50am 6.5ft 8s 6s 20 25 mph 1014.8mb 78f 77f
4:50am 7.5ft 7s 6s 20 25 mph 1015.3mb 78f 77f
3:50am 7ft 6s 6s 20 25 mph 1015.9mb 78f 77f
2:50am 7ft 7s 6s 20 25 mph 1017mb 78f 78f
1:50am 7ft 7s 6s 22 27 mph 1017.6mb 78f 75f
12:50am 7ft 8s 6s 22 27 mph 1017.5mb 78f 75f
Thu 05/28 11:50pm 7ft 8s 6s 18 22 mph 1017mb 78f 78f
10:50pm 6ft 8s 6s 20 25 mph 1016.6mb 78f 78f
9:50pm 6.5ft 8s 6s 22 25 mph 1015.6mb 78f 78f
8:50pm 6.5ft 8s 6s 22 27 mph 1014.9mb 78f 77f
7:50pm 6.5ft 8s 6s 18 20 mph 1014.9mb 78f 78f
6:50pm 6.5ft 8s 6s 18 20 mph 1014.7mb 78f 78f
5:50pm 7ft 7s 6s 18 20 mph 1014.8mb 78f 78f
4:50pm 7ft 8s 6s 18 22 mph 1015.2mb 78f 78f
3:50pm 7ft 8s 6s 20 22 mph 1015.6mb 78f 78f
2:50pm 7ft 8s 6s 18 22 mph 1016.1mb 78f 78f
1:50pm 7ft 8s 6s 20 25 mph 1016.3mb 78f 78f
12:50pm 7ft 8s 6s 20 22 mph 1016.6mb 78f 78f
11:50am 7ft 8s 6s 18 22 mph 1016.6mb 78f 78f
10:50am 7ft 8s 6s 18 20 mph 1016.2mb 78f 78f
9:50am 6.5ft 7s 6s 20 25 mph 1015.9mb 78f 78f
8:50am 7ft 8s 6s 22 27 mph 1015.1mb 78f 77f
7:50am 6.5ft 8s 6s 18 22 mph 1015.1mb 78f 77f
6:50am 7ft 7s 6s 20 22 mph 1015mb 78f 77f
5:50am 6ft 7s 6s 16 20 mph 1015.2mb 78f 77f
4:50am 6ft 7s 6s 18 22 mph 1015.5mb 78f 77f
3:50am 6.5ft 8s  -  20 25 mph 1015.7mb 78f 77f
2:50am 6ft 8s 5s 18 20 mph 1016.9mb 78f 77f
1:50am 6.5ft 8s 6s 20 25 mph 1017.1mb 78f 78f
12:50am 6ft 7s 6s 20 25 mph 1017.1mb 78f 78f
Wed 05/27 11:50pm 7ft 8s 6s 18 20 mph 1017.1mb 78f 78f
10:50pm 6ft 7s 5s 18 20 mph 1016.7mb 78f 78f
9:50pm 6.5ft 7s 6s 20 22 mph 1015.5mb 78f 78f
8:50pm 6ft 7s 6s 18 22 mph 1015mb 78f 78f
7:50pm 6.5ft 7s 6s 18 22 mph 1015mb 78f 78f
6:50pm 6.5ft 9s 6s 20 25 mph 1014.6mb 78f 78f
5:50pm 6.5ft 7s 6s 20 22 mph 1014.9mb 78f 78f
4:50pm 7ft 6s 6s 18 22 mph 1015.4mb 78f 78f
3:50pm 6ft 7s 6s 18 22 mph 1015.9mb 78f 78f
1:50pm 6ft 9s 6s 18 22 mph 1016.7mb 78f 78f
12:50pm 6ft 9s 6s 20 22 mph 1016.5mb 78f 78f
11:50am 6ft 6s 5s 18 22 mph 1016.6mb 78f 78f
10:50am 6ft 8s 6s 20 22 mph 1016.1mb 78f 78f
9:50am 6ft 9s 5s 20 22 mph 1015.9mb 78f 78f
8:50am 5ft 6s 5s 20 25 mph 1015.1mb 78f 77f
7:50am 5.5ft 9s 6s 20 25 mph 1014.7mb 78f 77f
6:50am 5.5ft 9s 5s 18 20 mph 1015mb 78f 77f
5:50am 6ft 9s 6s 18 20 mph 1015mb 78f 77f
4:50am 6ft 9s 5s 18 22 mph 1015mb 78f 77f
3:50am 6ft 7s 6s 16 20 mph 1015.6mb 78f 77f
2:50am 6ft 9s 5s 20 25 mph 1016.2mb 78f 77f
1:50am 6ft 9s 5s 18 22 mph 1016.6mb 78f 77f
12:50am 6ft 8s 6s 18 20 mph 1017mb 78f 77f
Tue 05/26 11:50pm 6ft 7s 6s 18 20 mph 1016.7mb 78f 78f
10:50pm 5.5ft 9s 6s 16 18 mph 1016.7mb 78f 77f
9:50pm 5.5ft 6s 6s 16 18 mph 1016.1mb 78f 77f
8:50pm 6ft 9s 6s 16 20 mph 1015.6mb 78f 76f
7:50pm 6ft 9s 6s 16 18 mph 1015.2mb 78f 76f
6:50pm 5.5ft 9s 6s 13
mph
1015.1mb 78f 76f
5:50pm 5.5ft 9s 6s 9 11 mph 1015.5mb 78f 75f
4:50pm 6ft 9s 6s 16 18 mph 1015.1mb 78f 77f
3:50pm 5.5ft 9s 6s 16 18 mph 1015.5mb 78f 77f
2:50pm 6ft 10s 6s 18 20 mph 1015.6mb 78f 77f
1:50pm 6ft 9s 6s 18 22 mph 1015.5mb 78f 78f
12:50pm 5.5ft 9s 6s 18 22 mph 1015.7mb 78f 77f
11:50am 5ft 9s 6s 18 20 mph 1015.8mb 78f 77f
10:50am 5ft 10s 6s 16 18 mph 1015.6mb 78f 77f
9:50am 5.5ft 10s 6s 18 20 mph 1015.1mb 78f 77f
8:50am 5ft 8s 6s 16 20 mph 1014.6mb 78f 77f
7:50am 5.5ft 9s 6s 16 18 mph 1014.6mb 78f 77f
6:50am 5ft 10s 6s 16 20 mph 1014.5mb 78f 77f
5:50am 6ft 10s 6s 16 20 mph 1014.1mb 78f 77f
4:50am 5.5ft 10s 6s 16 20 mph 1014.6mb 78f 77f
3:50am 6ft 10s 6s 13 18 mph 1015.6mb 78f 77f
2:50am 5.5ft 8s 6s 16 20 mph 1016.3mb 78f 77f
1:50am 5.5ft 10s 6s 16 20 mph 1016.7mb 78f 77f
12:50am 5.5ft 8s 6s 16 20 mph 1016.9mb 78f 77f
Mon 05/25 11:50pm 6ft 9s 6s 16 20 mph 1016mb 78f 77f
10:50pm 6ft 10s 6s 16 20 mph 1015.7mb 78f 77f